createdAt,value
2018-06-16T00:01:25.686Z,97.00
2018-06-16T00:03:54.098Z,97.00
2018-06-16T00:06:22.245Z,97.40
2018-06-16T00:08:51.369Z,97.20
2018-06-16T00:11:19.533Z,97.00
2018-06-16T00:13:47.730Z,97.00
2018-06-16T00:16:15.918Z,97.10
2018-06-16T00:18:44.109Z,97.10
2018-06-16T00:21:12.281Z,97.50
2018-06-16T00:23:40.485Z,97.20
2018-06-16T00:26:08.671Z,97.30
2018-06-16T00:28:36.857Z,97.30
2018-06-16T00:31:05.038Z,97.70
2018-06-16T00:33:33.225Z,97.40
2018-06-16T00:36:01.321Z,97.40
2018-06-16T00:38:29.512Z,97.30
2018-06-16T00:40:57.693Z,97.20
2018-06-16T00:43:25.874Z,97.20
2018-06-16T00:45:54.053Z,97.20
2018-06-16T00:48:22.250Z,97.20
2018-06-16T00:50:50.452Z,97.20
2018-06-16T00:53:18.646Z,97.40
2018-06-16T00:55:46.789Z,97.50
2018-06-16T00:58:14.981Z,97.50
2018-06-16T01:00:43.184Z,97.30
2018-06-16T01:03:11.366Z,97.30
2018-06-16T01:05:39.558Z,97.30
2018-06-16T01:08:07.734Z,97.30
2018-06-16T01:10:35.925Z,97.40
2018-06-16T01:13:04.106Z,97.50
2018-06-16T01:15:32.310Z,97.60
2018-06-16T01:18:00.482Z,97.70
2018-06-16T01:20:28.678Z,97.70
2018-06-16T01:22:56.856Z,97.50
2018-06-16T01:25:25.050Z,97.50
2018-06-16T01:27:53.221Z,97.50
2018-06-16T01:30:21.423Z,97.50
2018-06-16T01:32:49.603Z,97.50
2018-06-16T01:35:17.794Z,97.50
2018-06-16T01:37:46.130Z,97.50
2018-06-16T01:40:14.273Z,97.50
2018-06-16T01:42:42.451Z,97.60
2018-06-16T01:45:10.653Z,97.80
2018-06-16T01:47:38.921Z,97.80
2018-06-16T01:50:07.126Z,97.70
2018-06-16T01:52:35.309Z,97.70
2018-06-16T01:55:03.504Z,97.80
2018-06-16T01:57:31.682Z,97.80
2018-06-16T01:59:59.879Z,97.90
2018-06-16T02:02:28.058Z,97.80
2018-06-16T02:04:56.278Z,97.70
2018-06-16T02:07:24.429Z,97.80
2018-06-16T02:09:52.627Z,97.70
2018-06-16T02:12:20.797Z,97.90
2018-06-16T02:14:49.006Z,97.80
2018-06-16T02:17:17.174Z,97.70
2018-06-16T02:19:46.294Z,97.70
2018-06-16T02:22:14.469Z,97.80
2018-06-16T02:24:42.657Z,97.80
2018-06-16T02:27:10.866Z,97.70
2018-06-16T02:29:39.033Z,97.70
2018-06-16T02:32:07.214Z,97.80
2018-06-16T02:34:35.393Z,97.90
2018-06-16T02:37:03.579Z,97.90
2018-06-16T02:39:31.766Z,98.00
2018-06-16T02:41:59.946Z,97.90
2018-06-16T02:44:28.146Z,97.80
2018-06-16T02:46:56.322Z,97.80
2018-06-16T02:49:24.521Z,97.90
2018-06-16T02:51:52.702Z,98.00
2018-06-16T02:54:20.903Z,98.10
2018-06-16T02:56:49.071Z,98.00
2018-06-16T02:59:17.439Z,98.00
2018-06-16T03:01:45.566Z,98.00
2018-06-16T03:04:13.734Z,97.90
2018-06-16T03:06:41.970Z,98.00
2018-06-16T03:09:10.535Z,98.00
2018-06-16T03:11:38.938Z,97.90
2018-06-16T03:14:07.102Z,98.00
2018-06-16T03:16:35.294Z,98.00
2018-06-16T03:19:03.468Z,98.00
2018-06-16T03:21:31.672Z,98.00
2018-06-16T03:23:59.843Z,97.90
2018-06-16T03:26:28.042Z,98.00
2018-06-16T03:28:56.263Z,97.90
2018-06-16T03:31:24.430Z,97.90
2018-06-16T03:33:52.627Z,98.00
2018-06-16T03:36:20.827Z,97.90
2018-06-16T03:38:49.038Z,98.00
2018-06-16T03:41:17.193Z,97.90
2018-06-16T03:43:45.362Z,98.00
2018-06-16T03:46:13.598Z,98.00
2018-06-16T03:48:41.712Z,98.00
2018-06-16T03:51:09.950Z,98.20
2018-06-16T03:53:38.114Z,98.00
2018-06-16T03:56:06.334Z,97.90
2018-06-16T03:58:34.466Z,97.90
2018-06-16T04:01:02.696Z,98.00
2018-06-16T04:03:30.898Z,98.00
2018-06-16T04:05:59.282Z,98.00
2018-06-16T04:08:27.450Z,98.10
2018-06-16T04:10:55.649Z,98.10
2018-06-16T04:13:23.754Z,98.00
2018-06-16T04:15:51.902Z,98.10
2018-06-16T04:18:21.134Z,98.00
2018-06-16T04:20:49.300Z,97.90
2018-06-16T04:23:17.515Z,98.10
2018-06-16T04:25:45.701Z,98.10
2018-06-16T04:28:13.859Z,98.10
2018-06-16T04:30:42.030Z,98.20
2018-06-16T04:33:10.262Z,98.20
2018-06-16T04:35:38.447Z,98.20
2018-06-16T04:38:07.648Z,98.20
2018-06-16T04:40:35.825Z,98.20
2018-06-16T04:43:04.014Z,98.10
2018-06-16T04:45:32.262Z,98.60
2018-06-16T04:48:00.434Z,98.20
2018-06-16T04:50:28.551Z,98.20
2018-06-16T04:52:56.786Z,98.20
2018-06-16T04:55:24.931Z,98.10
2018-06-16T04:57:53.174Z,98.00
2018-06-16T05:00:21.344Z,98.10
2018-06-16T05:02:49.517Z,98.20
2018-06-16T05:05:17.714Z,98.10
2018-06-16T05:07:45.894Z,98.10
2018-06-16T05:10:14.042Z,98.10
2018-06-16T05:12:42.222Z,98.10
2018-06-16T05:15:10.422Z,98.20
2018-06-16T05:17:38.594Z,98.20
2018-06-16T05:20:06.782Z,98.20
2018-06-16T05:22:34.981Z,98.10
2018-06-16T05:25:03.159Z,98.00
2018-06-16T05:27:31.354Z,97.90
2018-06-16T05:29:59.525Z,97.80
2018-06-16T05:32:27.721Z,97.80
2018-06-16T05:34:55.910Z,97.80
2018-06-16T05:37:24.101Z,97.80
2018-06-16T05:39:52.273Z,97.90
2018-06-16T05:42:20.469Z,97.80
2018-06-16T05:44:48.643Z,97.70
2018-06-16T05:47:16.838Z,97.90
2018-06-16T05:49:45.943Z,97.90
2018-06-16T05:52:14.140Z,97.80
2018-06-16T05:54:42.330Z,97.80
2018-06-16T05:57:10.518Z,97.70
2018-06-16T05:59:38.706Z,97.60
2018-06-16T06:02:06.885Z,97.60
2018-06-16T06:04:35.064Z,97.70
2018-06-16T06:07:03.266Z,97.70
2018-06-16T06:09:31.442Z,97.70
2018-06-16T06:11:59.646Z,97.70
2018-06-16T06:14:29.758Z,97.50
2018-06-16T06:16:57.953Z,97.40
2018-06-16T06:19:26.046Z,97.30
2018-06-16T06:21:54.146Z,97.50
2018-06-16T06:24:22.302Z,97.40
2018-06-16T06:26:50.498Z,97.20
2018-06-16T06:29:18.681Z,97.30
2018-06-16T06:31:46.867Z,96.60
2018-06-16T06:34:15.050Z,96.40
2018-06-16T06:36:43.242Z,96.50
2018-06-16T06:39:11.425Z,96.70
2018-06-16T06:41:39.738Z,96.90
2018-06-16T06:44:07.904Z,96.90
2018-06-16T06:46:36.113Z,96.50
2018-06-16T06:49:04.273Z,96.70
2018-06-16T06:51:32.482Z,96.40
2018-06-16T06:54:00.646Z,96.20
2018-06-16T06:56:28.837Z,96.00
2018-06-16T06:58:57.009Z,95.90
2018-06-16T07:01:25.334Z,95.50
2018-06-16T07:03:53.523Z,95.40
2018-06-16T07:06:21.690Z,95.80
2018-06-16T07:08:49.866Z,96.00
2018-06-16T07:11:18.103Z,95.80
2018-06-16T07:13:46.241Z,96.20
2018-06-16T07:16:14.437Z,96.10
2018-06-16T07:18:42.633Z,96.00
2018-06-16T07:21:10.901Z,96.00
2018-06-16T07:23:39.017Z,95.50
2018-06-16T07:26:07.177Z,94.80
2018-06-16T07:28:35.437Z,94.80
2018-06-16T07:31:03.522Z,94.40
2018-06-16T07:33:31.617Z,95.10
2018-06-16T07:35:59.719Z,94.90
2018-06-16T07:38:27.805Z,95.70
2018-06-16T07:40:56.114Z,94.80
2018-06-16T07:43:24.294Z,94.90
2018-06-16T07:45:52.414Z,94.60
2018-06-16T07:48:20.506Z,95.00
2018-06-16T07:50:48.577Z,95.10
2018-06-16T07:53:16.678Z,94.60
2018-06-16T07:55:44.754Z,94.00
2018-06-16T07:58:12.915Z,92.90
2018-06-16T08:00:40.997Z,92.10
2018-06-16T08:03:09.098Z,92.90
2018-06-16T08:05:37.203Z,93.10
2018-06-16T08:08:05.328Z,93.60
2018-06-16T08:10:33.642Z,93.70
2018-06-16T08:13:01.744Z,92.40
2018-06-16T08:15:29.846Z,93.30
2018-06-16T08:17:57.945Z,92.70
2018-06-16T08:20:26.022Z,91.90
2018-06-16T08:22:55.182Z,93.70
2018-06-16T08:25:23.275Z,92.80
2018-06-16T08:27:51.369Z,92.50
2018-06-16T08:30:19.495Z,91.70
2018-06-16T08:32:47.603Z,91.60
2018-06-16T08:35:15.710Z,91.50
2018-06-16T08:37:43.835Z,91.40
2018-06-16T08:40:11.942Z,91.50
2018-06-16T08:42:40.281Z,91.90
2018-06-16T08:45:08.390Z,92.00
2018-06-16T08:47:36.553Z,91.00
2018-06-16T08:50:04.731Z,91.20
2018-06-16T08:52:32.921Z,90.60
2018-06-16T08:55:01.112Z,90.40
2018-06-16T08:57:29.290Z,89.00
2018-06-16T08:59:57.479Z,90.00
2018-06-16T09:02:25.659Z,88.10
2018-06-16T09:04:53.837Z,88.70
2018-06-16T09:07:22.046Z,87.50
2018-06-16T09:09:50.142Z,86.90
2018-06-16T09:12:18.339Z,86.30
2018-06-16T09:14:46.437Z,82.10
2018-06-16T09:17:14.573Z,83.50
2018-06-16T09:19:42.761Z,82.50
2018-06-16T09:22:10.881Z,82.70
2018-06-16T09:24:39.024Z,83.20
2018-06-16T09:27:07.223Z,82.70
2018-06-16T09:29:35.437Z,82.80
2018-06-16T09:32:03.535Z,81.20
2018-06-16T09:34:31.688Z,80.60
2018-06-16T09:36:59.953Z,81.70
2018-06-16T09:39:28.066Z,83.70
2018-06-16T09:41:56.269Z,83.40
2018-06-16T09:44:24.430Z,82.00
2018-06-16T09:46:52.614Z,78.90
2018-06-16T09:49:20.798Z,78.20
2018-06-16T09:51:49.090Z,79.90
2018-06-16T09:54:17.493Z,83.30
2018-06-16T09:56:45.698Z,76.10
2018-06-16T09:59:13.854Z,78.40
2018-06-16T10:01:41.955Z,79.80
2018-06-16T10:04:10.059Z,81.70
2018-06-16T10:06:38.154Z,76.40
2018-06-16T10:09:07.082Z,78.20
2018-06-16T10:11:35.178Z,76.60
2018-06-16T10:14:03.294Z,73.20
2018-06-16T10:16:31.466Z,75.00
2018-06-16T10:18:59.667Z,74.80
2018-06-16T10:21:27.767Z,73.20
2018-06-16T10:23:55.908Z,73.70
2018-06-16T10:26:23.982Z,73.80
2018-06-16T10:28:52.354Z,67.30
2018-06-16T10:31:20.459Z,68.40
2018-06-16T10:36:16.492Z,74.00
2018-06-16T10:38:44.587Z,73.80
2018-06-16T10:41:12.669Z,72.70
2018-06-16T10:43:40.761Z,69.20
2018-06-16T10:46:08.837Z,70.50
2018-06-16T10:48:36.926Z,68.20
2018-06-16T10:51:05.218Z,70.30
2018-06-16T10:56:01.243Z,71.10
2018-06-16T10:58:29.409Z,70.60
2018-06-16T11:00:57.613Z,73.40
2018-06-16T11:03:25.787Z,64.90
2018-06-16T11:05:53.978Z,62.60
2018-06-16T11:08:22.366Z,60.60
2018-06-16T11:10:50.481Z,68.70
2018-06-16T11:13:18.585Z,64.40
2018-06-16T11:15:46.714Z,65.40
2018-06-16T11:18:14.814Z,67.80
2018-06-16T11:20:42.922Z,67.10
2018-06-16T11:23:11.037Z,64.00
2018-06-16T11:25:39.143Z,68.80
2018-06-16T11:28:07.241Z,68.30
2018-06-16T11:30:35.347Z,68.00
2018-06-16T11:33:03.463Z,67.70
2018-06-16T11:35:31.621Z,66.90
2018-06-16T11:37:59.818Z,65.90
2018-06-16T11:40:27.974Z,62.00
2018-06-16T11:42:56.202Z,58.10
2018-06-16T11:45:24.382Z,59.40
2018-06-16T11:47:52.514Z,61.70
2018-06-16T11:50:20.614Z,57.00
2018-06-16T11:52:48.849Z,55.80
2018-06-16T11:55:18.042Z,55.30
2018-06-16T11:57:46.257Z,54.30
2018-06-16T12:00:14.427Z,54.20
2018-06-16T12:02:42.583Z,54.00
2018-06-16T12:05:10.853Z,53.90
2018-06-16T12:07:38.934Z,52.70
2018-06-16T12:10:07.146Z,55.50
2018-06-16T12:12:35.564Z,55.80
2018-06-16T12:15:03.834Z,56.50
2018-06-16T12:17:32.068Z,51.70
2018-06-16T12:20:00.217Z,51.40
2018-06-16T12:22:28.397Z,52.70
2018-06-16T12:24:56.562Z,52.20
2018-06-16T12:27:24.775Z,52.10
2018-06-16T12:29:52.923Z,52.80
2018-06-16T12:32:21.137Z,54.20
2018-06-16T12:34:49.326Z,50.50
2018-06-16T12:37:17.489Z,49.00
2018-06-16T12:39:45.674Z,48.80
2018-06-16T12:42:13.876Z,48.00
2018-06-16T12:44:42.055Z,52.50
2018-06-16T12:47:10.243Z,48.10
2018-06-16T12:49:38.325Z,47.10
2018-06-16T12:52:06.509Z,48.50
2018-06-16T12:54:34.702Z,47.80
2018-06-16T12:57:02.893Z,49.10
2018-06-16T12:59:31.066Z,49.10
2018-06-16T13:01:59.289Z,48.70
2018-06-16T13:04:27.455Z,49.60
2018-06-16T13:06:55.626Z,49.20
2018-06-16T13:09:23.810Z,49.10
2018-06-16T13:11:52.302Z,49.20
2018-06-16T13:14:20.498Z,51.90
2018-06-16T13:16:48.606Z,51.20
2018-06-16T13:19:16.764Z,50.80
2018-06-16T13:21:44.962Z,52.70
2018-06-16T13:24:13.242Z,52.00
2018-06-16T13:26:41.332Z,53.00
2018-06-16T13:29:09.655Z,50.20
2018-06-16T13:31:37.711Z,50.70
2018-06-16T13:34:05.891Z,51.50
2018-06-16T13:36:34.105Z,50.00
2018-06-16T13:39:02.273Z,51.50
2018-06-16T13:41:30.454Z,51.80
2018-06-16T13:43:58.638Z,47.00
2018-06-16T13:46:26.834Z,46.80
2018-06-16T13:48:54.997Z,50.30
2018-06-16T13:51:23.197Z,47.80
2018-06-16T13:53:51.375Z,48.20
2018-06-16T13:56:19.602Z,51.00
2018-06-16T13:58:47.687Z,48.30
2018-06-16T14:01:15.765Z,48.10
2018-06-16T14:03:43.930Z,48.90
2018-06-16T14:06:12.037Z,47.70
2018-06-16T14:08:40.194Z,47.60
2018-06-16T14:11:08.286Z,48.90
2018-06-16T14:13:36.374Z,45.20
2018-06-16T14:16:04.577Z,47.00
2018-06-16T14:18:32.670Z,43.80
2018-06-16T14:21:00.758Z,43.60
2018-06-16T14:23:28.846Z,43.90
2018-06-16T14:25:56.954Z,49.20
2018-06-16T14:30:53.008Z,47.50
2018-06-16T14:33:21.102Z,47.80
2018-06-16T14:35:49.350Z,46.60
2018-06-16T14:38:17.455Z,48.90
2018-06-16T14:40:45.557Z,46.60
2018-06-16T14:43:13.663Z,47.30
2018-06-16T14:45:41.786Z,45.90
2018-06-16T14:48:09.908Z,47.10
2018-06-16T14:50:37.997Z,47.10
2018-06-16T14:53:06.115Z,46.80
2018-06-16T14:55:35.255Z,49.20
2018-06-16T14:58:03.459Z,47.40
2018-06-16T15:00:31.622Z,45.10
2018-06-16T15:02:59.819Z,43.60
2018-06-16T15:05:28.010Z,44.30
2018-06-16T15:07:56.190Z,44.50
2018-06-16T15:10:24.332Z,44.10
2018-06-16T15:12:52.421Z,44.80
2018-06-16T15:15:20.542Z,42.80
2018-06-16T15:17:48.654Z,41.50
2018-06-16T15:20:16.753Z,44.20
2018-06-16T15:22:44.853Z,44.00
2018-06-16T15:25:12.949Z,43.30
2018-06-16T15:27:41.078Z,41.60
2018-06-16T15:30:09.361Z,43.10
2018-06-16T15:32:37.545Z,40.80
2018-06-16T15:35:05.713Z,40.80
2018-06-16T15:37:33.793Z,41.20
2018-06-16T15:40:01.946Z,42.70
2018-06-16T15:42:30.118Z,43.10
2018-06-16T15:44:58.254Z,44.40
2018-06-16T15:47:26.450Z,44.60
2018-06-16T15:49:54.567Z,41.00
2018-06-16T15:52:22.689Z,40.80
2018-06-16T15:54:50.814Z,41.40
2018-06-16T15:57:18.976Z,44.00
2018-06-16T15:59:47.179Z,43.10
2018-06-16T16:02:15.362Z,43.80
2018-06-16T16:04:43.455Z,45.10
2018-06-16T16:07:11.633Z,42.60
2018-06-16T16:09:39.724Z,43.10
2018-06-16T16:12:07.902Z,41.30
2018-06-16T16:14:36.101Z,42.60
2018-06-16T16:17:04.278Z,42.30
2018-06-16T16:19:32.476Z,43.00
2018-06-16T16:22:00.661Z,42.70
2018-06-16T16:24:28.754Z,44.00
2018-06-16T16:26:56.916Z,42.80
2018-06-16T16:29:25.182Z,43.40
2018-06-16T16:31:53.292Z,43.60
2018-06-16T16:34:21.483Z,44.40
2018-06-16T16:36:49.667Z,46.30
2018-06-16T16:39:17.853Z,44.70
2018-06-16T16:41:45.969Z,46.50
2018-06-16T16:44:14.124Z,44.20
2018-06-16T16:46:42.314Z,47.50
2018-06-16T16:49:10.501Z,46.40
2018-06-16T16:51:39.674Z,47.30
2018-06-16T16:54:07.834Z,45.80
2018-06-16T16:56:35.990Z,47.80
2018-06-16T16:59:04.337Z,47.00
2018-06-16T17:01:32.556Z,48.80
2018-06-16T17:04:00.653Z,48.00
2018-06-16T17:06:28.741Z,49.90
2018-06-16T17:08:56.911Z,51.50
2018-06-16T17:11:25.022Z,52.50
2018-06-16T17:13:53.174Z,53.00
2018-06-16T17:16:21.290Z,52.20
2018-06-16T17:18:49.393Z,51.70
2018-06-16T17:21:17.550Z,51.10
2018-06-16T17:23:45.775Z,52.00
2018-06-16T17:26:13.922Z,51.70
2018-06-16T17:28:42.030Z,52.80
2018-06-16T17:31:10.126Z,53.30
2018-06-16T17:33:38.222Z,52.70
2018-06-16T17:36:06.333Z,53.20
2018-06-16T17:38:34.418Z,55.30
2018-06-16T17:43:30.515Z,57.80
2018-06-16T17:45:58.692Z,59.50
2018-06-16T17:48:26.782Z,57.70
2018-06-16T17:50:54.878Z,59.10
2018-06-16T17:53:22.958Z,61.60
2018-06-16T17:55:51.141Z,62.50
2018-06-16T17:58:19.317Z,63.20
2018-06-16T18:00:47.499Z,63.70
2018-06-16T18:03:15.710Z,65.30
2018-06-16T18:05:44.009Z,67.00
2018-06-16T18:08:12.178Z,67.90
2018-06-16T18:10:40.261Z,68.90
2018-06-16T18:13:08.442Z,68.50
2018-06-16T18:15:36.631Z,69.30
2018-06-16T18:18:05.094Z,70.40
2018-06-16T18:20:33.200Z,70.60
2018-06-16T18:23:01.399Z,70.60
2018-06-16T18:25:29.635Z,71.50
2018-06-16T18:27:57.775Z,70.90
2018-06-16T18:30:25.994Z,71.60
2018-06-16T18:32:54.133Z,71.50
2018-06-16T18:35:22.329Z,72.10
2018-06-16T18:37:50.650Z,71.50
2018-06-16T18:40:18.767Z,71.60
2018-06-16T18:42:46.897Z,72.00
2018-06-16T18:45:15.083Z,72.30
2018-06-16T18:47:43.281Z,72.40
2018-06-16T18:50:11.395Z,73.10
2018-06-16T18:52:39.552Z,73.70
2018-06-16T18:55:07.647Z,74.10
2018-06-16T18:57:35.831Z,74.70
2018-06-16T19:00:04.405Z,76.20
2018-06-16T19:02:32.621Z,76.20
2018-06-16T19:05:00.779Z,76.00
2018-06-16T19:07:28.977Z,76.20
2018-06-16T19:09:57.125Z,76.50
2018-06-16T19:12:25.246Z,76.00
2018-06-16T19:14:53.425Z,76.00
2018-06-16T19:17:21.626Z,76.40
2018-06-16T19:19:50.014Z,76.60
2018-06-16T19:22:18.202Z,77.00
2018-06-16T19:24:46.494Z,76.60
2018-06-16T19:27:14.673Z,77.10
2018-06-16T19:29:42.857Z,77.80
2018-06-16T19:32:11.058Z,77.90
2018-06-16T19:34:39.333Z,77.80
2018-06-16T19:37:07.522Z,78.30
2018-06-16T19:39:35.711Z,78.70
2018-06-16T19:42:03.904Z,79.00
2018-06-16T19:44:32.018Z,79.30
2018-06-16T19:47:00.170Z,80.30
2018-06-16T19:49:28.380Z,81.20
2018-06-16T19:51:56.538Z,81.30
2018-06-16T19:54:24.729Z,81.30
2018-06-16T19:56:52.916Z,81.10
2018-06-16T19:59:21.091Z,81.40
2018-06-16T20:01:49.285Z,81.60
2018-06-16T20:04:17.477Z,82.60
2018-06-16T20:06:45.686Z,83.20
2018-06-16T20:09:13.849Z,83.70
2018-06-16T20:11:42.090Z,84.20
2018-06-16T20:14:11.062Z,84.80
2018-06-16T20:16:39.226Z,85.10
2018-06-16T20:19:07.431Z,85.50
2018-06-16T20:21:35.599Z,85.80
2018-06-16T20:24:03.798Z,86.50
2018-06-16T20:26:31.971Z,85.90
2018-06-16T20:29:00.182Z,86.20
2018-06-16T20:31:28.345Z,86.70
2018-06-16T20:33:56.593Z,87.00
2018-06-16T20:36:25.651Z,87.70
2018-06-16T20:38:53.838Z,87.60
2018-06-16T20:41:21.947Z,87.70
2018-06-16T20:43:50.102Z,88.00
2018-06-16T20:46:18.394Z,88.80
2018-06-16T20:48:46.578Z,88.90
2018-06-16T20:51:14.757Z,89.10
2018-06-16T20:53:42.953Z,89.10
2018-06-16T20:56:11.182Z,89.20
2018-06-16T20:58:39.329Z,89.40
2018-06-16T21:01:07.511Z,90.00
2018-06-16T21:03:35.693Z,89.80
2018-06-16T21:06:03.885Z,90.20
2018-06-16T21:08:32.086Z,90.50
2018-06-16T21:11:00.258Z,90.40
2018-06-16T21:13:28.366Z,90.60
2018-06-16T21:15:56.534Z,90.90
2018-06-16T21:18:24.650Z,90.90
2018-06-16T21:20:52.818Z,90.90
2018-06-16T21:23:20.994Z,90.90
2018-06-16T21:25:49.185Z,90.90
2018-06-16T21:28:17.362Z,90.80
2018-06-16T21:30:45.580Z,90.90
2018-06-16T21:33:13.749Z,91.10
2018-06-16T21:35:41.900Z,91.10
2018-06-16T21:38:10.115Z,90.90
2018-06-16T21:40:38.280Z,90.90
2018-06-16T21:43:06.479Z,91.00
2018-06-16T21:45:34.666Z,90.90
2018-06-16T21:48:02.898Z,91.10
2018-06-16T21:50:31.022Z,91.10
2018-06-16T21:52:59.223Z,91.20
2018-06-16T21:55:27.434Z,91.10
2018-06-16T21:57:55.590Z,91.20
2018-06-16T22:00:23.789Z,91.20
2018-06-16T22:02:51.969Z,91.20
2018-06-16T22:05:20.134Z,91.10
2018-06-16T22:07:48.246Z,91.10
2018-06-16T22:10:16.427Z,91.10
2018-06-16T22:12:44.603Z,91.10
2018-06-16T22:15:12.807Z,91.00
2018-06-16T22:17:40.988Z,91.20
2018-06-16T22:20:09.178Z,91.10
2018-06-16T22:22:37.349Z,91.10
2018-06-16T22:25:05.682Z,91.20
2018-06-16T22:27:33.838Z,91.30
2018-06-16T22:30:02.026Z,91.30
2018-06-16T22:32:30.220Z,91.70
2018-06-16T22:34:58.419Z,91.60
2018-06-16T22:37:26.581Z,91.60
2018-06-16T22:39:54.786Z,91.50
2018-06-16T22:42:22.973Z,91.80
2018-06-16T22:44:51.163Z,91.60
2018-06-16T22:47:19.338Z,91.80
2018-06-16T22:49:48.449Z,92.20
2018-06-16T22:52:16.639Z,91.60
2018-06-16T22:54:44.830Z,91.60
2018-06-16T22:57:13.014Z,91.50
2018-06-16T22:59:41.203Z,91.50
2018-06-16T23:02:09.394Z,91.40
2018-06-16T23:04:37.585Z,91.50
2018-06-16T23:07:05.749Z,91.80
2018-06-16T23:09:33.943Z,91.70
2018-06-16T23:12:02.134Z,91.60
2018-06-16T23:14:30.329Z,91.80
2018-06-16T23:16:58.553Z,91.90
2018-06-16T23:19:26.702Z,91.90
2018-06-16T23:21:54.869Z,91.60
2018-06-16T23:24:23.152Z,91.40
2018-06-16T23:26:51.262Z,91.80
2018-06-16T23:29:19.441Z,91.70
2018-06-16T23:31:47.622Z,91.60
2018-06-16T23:34:15.814Z,91.50
2018-06-16T23:36:44.007Z,91.10
2018-06-16T23:39:13.227Z,91.30
2018-06-16T23:41:41.914Z,91.30
2018-06-16T23:44:10.101Z,91.20
2018-06-16T23:46:38.386Z,91.40
2018-06-16T23:49:06.790Z,91.30
2018-06-16T23:51:34.957Z,91.30
2018-06-16T23:54:03.158Z,91.20
2018-06-16T23:56:31.344Z,91.60
2018-06-16T23:58:59.533Z,91.50
